Columbus, Michigan
Current Conditions -  °F | °C
As of 8:17 PM on Thursday 18 Dec 2014 (Local Time) from KPHN Reporting Station
Overcast Overcast  
Wind Chill: 19°   Ceiling: 900
Heat Index: 27°   Visibility: 7mi
Dew Point: 25°   Wind: 7mph
Humidity: 93%   Direction: 350°N
Pressure: 30.18"   Gusts: NA
Location:  42.85°N, 82.67°W
Report Text: KPHN 190117Z AUTO 35006KT 7SM OVC009 M03/M04 A3018 RMK AO2
Loading
Personal Weather Stations






























Interactive Weather Map New forecast layout! Learn more

10-Day Weather Forecast

Advertisements
Track Severe Weather on mobile